Time;durP1;ratioP1;P1;durP2;ratioP2;P2;SDS_P1;SDS_P2;PMS_P1;PMS_P2;Temp;Humidity;BMP_temperature;BMP_pressure;BME280_temperature;BME280_humidity;BME280_pressure;Samples;Min_cycle;Max_cycle;Signal;HPM_P1;HPM_P2
2023/06/24 00:01:41;;;;;;;11.68;7.32;;;19.20;99.90;;;;;;5051522;28;20636;-77
2023/06/24 00:04:18;;;;;;;11.35;7.40;;;19.20;99.90;;;;;;5051292;28;20540;-78
2023/06/24 00:06:48;;;;;;;9.05;7.25;;;19.10;99.90;;;;;;5051809;28;20295;-76
2023/06/24 00:09:15;;;;;;;14.25;8.07;;;19.20;99.90;;;;;;5050443;28;20221;-77
2023/06/24 00:11:51;;;;;;;10.10;7.50;;;19.00;99.90;;;;;;5050564;28;20301;-78
2023/06/24 00:14:43;;;;;;;9.90;7.10;;;19.10;99.90;;;;;;5052027;28;20235;-78
2023/06/24 00:17:25;;;;;;;;;;;;;;;;;;;;;
2023/06/24 00:19:54;;;;;;;9.90;6.90;;;19.30;99.90;;;;;;5067842;28;20212;-80
2023/06/24 00:22:29;;;;;;;10.02;7.43;;;19.10;99.90;;;;;;5050863;28;20235;-77
2023/06/24 00:25:33;;;;;;;;;;;;;;;;;;;;;
2023/06/24 00:28:37;;;;;;;13.13;7.15;;;19.10;99.90;;;;;;5052957;28;20352;-78
2023/06/24 00:31:18;;;;;;;;;;;;;;;;;;;;;
2023/06/24 00:33:55;;;;;;;11.13;7.25;;;19.10;99.90;;;;;;5068498;28;20755;-79
2023/06/24 00:36:28;;;;;;;10.10;6.97;;;19.10;99.90;;;;;;5050476;28;20207;-77
2023/06/24 00:39:03;;;;;;;10.07;7.32;;;19.20;99.90;;;;;;5058237;28;20725;-77
2023/06/24 00:41:38;;;;;;;11.10;6.38;;;19.30;99.90;;;;;;5058405;28;20261;-78
2023/06/24 00:44:07;;;;;;;11.13;7.43;;;19.20;99.90;;;;;;5050575;28;20209;-77
2023/06/24 00:46:37;;;;;;;10.45;6.78;;;19.20;99.90;;;;;;5050680;28;20327;-78
2023/06/24 00:49:08;;;;;;;8.82;6.65;;;19.20;99.90;;;;;;5042838;28;20609;-78
2023/06/24 00:51:47;;;;;;;11.30;7.47;;;19.20;99.90;;;;;;5049943;28;20235;-77
2023/06/24 00:54:18;;;;;;;9.00;6.35;;;19.20;99.90;;;;;;5059856;28;20680;-79
2023/06/24 00:56:46;;;;;;;8.77;6.60;;;19.10;99.90;;;;;;5058183;28;20219;-79
2023/06/24 00:59:17;;;;;;;9.35;7.00;;;19.00;99.90;;;;;;5049952;28;20563;-77
2023/06/24 01:01:49;;;;;;;9.90;7.28;;;19.10;99.90;;;;;;5050069;28;20295;-77
2023/06/24 01:04:20;;;;;;;11.23;7.45;;;19.00;99.90;;;;;;5049507;28;20236;-78
2023/06/24 01:07:05;;;;;;;11.85;7.25;;;19.00;99.90;;;;;;5051615;28;20218;-78
2023/06/24 01:09:42;;;;;;;11.20;7.50;;;19.00;99.90;;;;;;5051215;28;20232;-77
2023/06/24 01:12:13;;;;;;;11.70;7.63;;;19.00;99.90;;;;;;5050214;28;20323;-78
2023/06/24 01:14:45;;;;;;;10.63;7.30;;;18.90;99.90;;;;;;5049159;28;20567;-77
2023/06/24 01:17:16;;;;;;;10.02;7.30;;;19.00;99.90;;;;;;5049810;28;20220;-77
2023/06/24 01:20:13;;;;;;;11.43;7.20;;;18.90;99.90;;;;;;5048579;28;20635;-77
2023/06/24 01:23:20;;;;;;;11.52;7.28;;;18.90;99.90;;;;;;5050158;28;20976;-78
2023/06/24 01:26:14;;;;;;;10.93;6.65;;;18.90;99.90;;;;;;5049671;28;20243;-77
2023/06/24 01:29:18;;;;;;;12.00;7.30;;;18.80;99.90;;;;;;5049990;28;20287;-77
2023/06/24 01:32:28;;;;;;;10.68;6.80;;;18.70;99.90;;;;;;5049493;28;20224;-77
2023/06/24 01:35:09;;;;;;;9.82;6.55;;;18.70;99.90;;;;;;4977263;28;20207;-77
2023/06/24 01:37:51;;;;;;;10.20;6.80;;;18.70;99.90;;;;;;5050496;28;20262;-77
2023/06/24 01:40:47;;;;;;;9.50;6.73;;;18.70;99.90;;;;;;5048636;28;20313;-77
2023/06/24 01:43:18;;;;;;;13.57;7.60;;;18.60;99.90;;;;;;5049930;28;20203;-78
2023/06/24 01:45:54;;;;;;;11.00;7.27;;;18.60;99.90;;;;;;5049638;28;20212;-77
2023/06/24 01:48:28;;;;;;;10.67;7.63;;;18.50;99.90;;;;;;5049367;28;20266;-77
2023/06/24 01:51:11;;;;;;;12.88;7.53;;;18.40;99.90;;;;;;5048858;28;20277;-77
2023/06/24 01:54:20;;;;;;;;;;;;;;;;;;;;;
2023/06/24 01:56:54;;;;;;;14.13;8.17;;;18.50;99.90;;;;;;5067270;28;20203;-79
2023/06/24 01:59:38;;;;;;;11.50;7.17;;;18.50;99.90;;;;;;5049659;28;20211;-77
2023/06/24 02:02:09;;;;;;;11.25;7.97;;;18.50;99.90;;;;;;5041976;28;20561;-78
2023/06/24 02:04:46;;;;;;;11.48;7.47;;;18.50;99.90;;;;;;5065551;28;20191;-77
2023/06/24 02:07:20;;;;;;;11.57;7.90;;;18.40;99.90;;;;;;5050128;28;20232;-76
2023/06/24 02:09:54;;;;;;;11.13;7.57;;;18.40;99.90;;;;;;5049024;28;20692;-76
2023/06/24 02:12:27;;;;;;;12.77;7.93;;;18.40;99.90;;;;;;5049201;28;20695;-79
2023/06/24 02:14:59;;;;;;;13.65;8.20;;;18.30;99.90;;;;;;5053162;28;20208;-79
2023/06/24 02:17:47;;;;;;;;;;;;;;;;;;;;;
2023/06/24 02:20:48;;;;;;;13.60;7.77;;;18.20;99.90;;;;;;4980882;28;20215;-77
2023/06/24 02:23:16;;;;;;;10.93;7.63;;;18.20;99.90;;;;;;4967914;28;20656;-78
2023/06/24 02:25:45;;;;;;;12.07;7.70;;;18.10;99.90;;;;;;5042869;28;20219;-79
2023/06/24 02:28:19;;;;;;;11.00;7.43;;;18.10;99.90;;;;;;5048716;28;20591;-79
2023/06/24 02:30:50;;;;;;;10.77;7.37;;;18.10;99.90;;;;;;5043667;28;20681;-78
2023/06/24 02:33:17;;;;;;;11.50;7.63;;;18.00;99.90;;;;;;5060835;28;20212;-77
2023/06/24 02:35:46;;;;;;;10.43;7.60;;;17.90;99.90;;;;;;5070542;28;20204;-78
2023/06/24 02:38:18;;;;;;;14.03;8.23;;;17.90;99.90;;;;;;5052473;28;20243;-77
2023/06/24 02:40:53;;;;;;;12.10;7.00;;;18.00;99.90;;;;;;5052323;28;20205;-77
2023/06/24 02:43:20;;;;;;;10.70;7.17;;;18.00;99.90;;;;;;5052086;28;20211;-77
2023/06/24 02:45:57;;;;;;;11.67;7.20;;;17.90;99.90;;;;;;5052680;28;20209;-78
2023/06/24 02:48:27;;;;;;;11.47;7.73;;;18.00;99.90;;;;;;5052550;28;20304;-78
2023/06/24 02:50:59;;;;;;;11.93;7.37;;;17.90;99.90;;;;;;5052583;28;20209;-77
2023/06/24 02:53:28;;;;;;;11.80;8.10;;;17.90;99.90;;;;;;5051910;28;20221;-76
2023/06/24 02:56:03;;;;;;;12.67;8.17;;;18.00;99.90;;;;;;5052640;28;20297;-79
2023/06/24 02:58:39;;;;;;;11.43;7.37;;;17.90;99.90;;;;;;5052133;28;20212;-78
2023/06/24 03:01:18;;;;;;;10.90;7.17;;;17.90;99.90;;;;;;5047066;28;20291;-76
2023/06/24 03:03:52;;;;;;;10.10;7.10;;;17.80;99.90;;;;;;5069252;28;20209;-76
2023/06/24 03:06:26;;;;;;;10.20;7.27;;;17.80;99.90;;;;;;5052301;28;20262;-79
2023/06/24 03:08:55;;;;;;;11.20;7.47;;;17.80;99.90;;;;;;5051329;28;20232;-78
2023/06/24 03:11:28;;;;;;;11.83;8.03;;;17.70;99.90;;;;;;5051887;28;20315;-77
2023/06/24 03:13:55;;;;;;;10.93;7.23;;;17.70;99.90;;;;;;5052000;28;20760;-77
2023/06/24 03:16:28;;;;;;;10.90;7.17;;;17.80;99.90;;;;;;5048119;28;20262;-78
2023/06/24 03:18:58;;;;;;;11.93;7.73;;;17.70;99.90;;;;;;5051124;28;20208;-79
2023/06/24 03:21:33;;;;;;;12.07;7.30;;;17.70;99.90;;;;;;5053300;28;20231;-77
2023/06/24 03:24:01;;;;;;;11.83;7.30;;;17.70;99.90;;;;;;5051774;28;20672;-78
2023/06/24 03:26:40;;;;;;;11.03;7.47;;;17.70;99.90;;;;;;5051971;28;20215;-78
2023/06/24 03:29:09;;;;;;;10.73;7.50;;;17.60;99.90;;;;;;5060355;28;20231;-77
2023/06/24 03:31:43;;;;;;;11.17;7.27;;;17.60;99.90;;;;;;5059750;28;20234;-78
2023/06/24 03:34:13;;;;;;;10.03;7.23;;;17.60;99.90;;;;;;5061018;28;20219;-78
2023/06/24 03:36:42;;;;;;;11.30;6.90;;;17.60;99.90;;;;;;5051505;28;20219;-77
2023/06/24 03:39:26;;;;;;;12.77;7.87;;;17.60;99.90;;;;;;5052808;28;20631;-78
2023/06/24 03:41:55;;;;;;;9.90;7.17;;;17.70;99.90;;;;;;5051463;28;20208;-79
2023/06/24 03:44:27;;;;;;;11.30;7.57;;;17.70;99.90;;;;;;5051233;28;20218;-78
2023/06/24 03:46:57;;;;;;;13.97;7.47;;;17.60;99.90;;;;;;5051632;28;20542;-77
2023/06/24 03:49:24;;;;;;;11.60;7.90;;;17.70;99.90;;;;;;5051241;28;20208;-78
2023/06/24 03:51:51;;;;;;;12.40;8.33;;;17.60;99.90;;;;;;5050994;28;20235;-76
2023/06/24 03:54:20;;;;;;;10.57;7.57;;;17.60;99.90;;;;;;5050961;28;20260;-78
2023/06/24 03:56:49;;;;;;;11.60;7.93;;;17.60;99.90;;;;;;5050948;28;20728;-79
2023/06/24 03:59:16;;;;;;;12.70;7.90;;;17.60;99.90;;;;;;5051225;28;20239;-78
2023/06/24 04:01:43;;;;;;;10.63;7.33;;;17.60;99.90;;;;;;5048979;28;20282;-78
2023/06/24 04:04:12;;;;;;;11.97;8.03;;;17.60;99.90;;;;;;5050656;28;20279;-78
2023/06/24 04:06:45;;;;;;;14.03;7.33;;;17.70;99.90;;;;;;5053813;28;20220;-76
2023/06/24 04:09:17;;;;;;;14.17;8.20;;;17.70;99.90;;;;;;5051346;28;20235;-76
2023/06/24 04:11:46;;;;;;;13.00;8.20;;;17.70;99.90;;;;;;5068746;28;20235;-79
2023/06/24 04:14:13;;;;;;;12.87;8.10;;;17.60;99.90;;;;;;5051014;28;20204;-77
2023/06/24 04:16:55;;;;;;;11.13;7.13;;;17.60;99.90;;;;;;5050030;28;20196;-77
2023/06/24 04:19:23;;;;;;;13.67;7.93;;;17.70;99.90;;;;;;5050863;28;20224;-77
2023/06/24 04:21:50;;;;;;;13.93;8.37;;;17.70;99.90;;;;;;5050703;28;20208;-77
2023/06/24 04:24:20;;;;;;;14.17;7.80;;;17.60;99.90;;;;;;5050388;28;20312;-78
2023/06/24 04:26:50;;;;;;;11.87;8.10;;;17.70;99.90;;;;;;5050543;28;20604;-79
2023/06/24 04:29:17;;;;;;;13.90;8.07;;;17.80;99.90;;;;;;5049693;28;20216;-77
2023/06/24 04:31:44;;;;;;;11.93;8.40;;;17.90;99.90;;;;;;5050689;28;20692;-77
2023/06/24 04:34:13;;;;;;;12.07;8.37;;;17.90;99.90;;;;;;5051046;28;20219;-77
2023/06/24 04:36:44;;;;;;;12.53;8.40;;;17.80;99.90;;;;;;5050800;28;20203;-77
2023/06/24 04:39:14;;;;;;;13.23;7.83;;;18.00;99.90;;;;;;5049776;28;20711;-79
2023/06/24 04:41:46;;;;;;;12.50;7.93;;;18.00;99.90;;;;;;5049956;28;20680;-77
2023/06/24 04:44:13;;;;;;;10.80;7.70;;;18.10;99.90;;;;;;5050520;28;20208;-77
2023/06/24 04:46:45;;;;;;;14.93;7.80;;;18.20;99.90;;;;;;5050286;28;20217;-78
2023/06/24 04:49:15;;;;;;;16.20;8.25;;;18.30;99.90;;;;;;5051991;28;20207;-76
2023/06/24 04:51:48;;;;;;;11.07;8.00;;;18.30;99.90;;;;;;5055556;28;20227;-76
2023/06/24 04:54:15;;;;;;;17.50;8.65;;;18.40;99.90;;;;;;5053268;28;20336;-77
2023/06/24 04:56:44;;;;;;;12.52;8.30;;;18.40;99.90;;;;;;5054730;28;20212;-77
2023/06/24 04:59:32;;;;;;;10.75;8.10;;;18.50;99.90;;;;;;5052585;28;20698;-77
2023/06/24 05:02:09;;;;;;;16.33;8.40;;;18.60;99.90;;;;;;5050476;28;20673;-76
2023/06/24 05:04:38;;;;;;;12.73;8.52;;;18.70;99.90;;;;;;5067025;28;20287;-77
2023/06/24 05:07:16;;;;;;;12.18;8.02;;;18.80;99.90;;;;;;5040247;28;20247;-77
2023/06/24 05:09:45;;;;;;;13.50;8.43;;;19.00;99.90;;;;;;5059143;28;20255;-78
2023/06/24 05:12:12;;;;;;;14.88;8.82;;;19.00;99.90;;;;;;5048699;28;20643;-77
2023/06/24 05:14:40;;;;;;;14.30;8.40;;;19.10;99.90;;;;;;5067628;28;20212;-77
2023/06/24 05:17:18;;;;;;;16.52;9.02;;;19.40;99.90;;;;;;5049900;28;20208;-77
2023/06/24 05:19:53;;;;;;;13.23;8.90;;;19.40;99.90;;;;;;5050280;28;20222;-77
2023/06/24 05:22:31;;;;;;;13.75;9.35;;;19.50;99.90;;;;;;5049428;28;20216;-77
2023/06/24 05:25:00;;;;;;;14.57;8.73;;;19.60;99.90;;;;;;5049686;28;20634;-78
2023/06/24 05:27:38;;;;;;;12.27;9.07;;;19.80;99.90;;;;;;5049702;28;20200;-77
2023/06/24 05:30:14;;;;;;;13.05;8.45;;;20.60;99.90;;;;;;5044393;28;20212;-77
2023/06/24 05:32:41;;;;;;;11.85;8.20;;;;;;;;;;5049451;28;20696;-77
2023/06/24 05:35:08;;;;;;;12.65;8.40;;;22.80;99.90;;;;;;5049614;28;20204;-77
2023/06/24 05:37:35;;;;;;;13.35;9.52;;;23.90;99.90;;;;;;5049229;28;20208;-80
2023/06/24 05:40:04;;;;;;;12.70;8.90;;;24.90;99.90;;;;;;5033184;28;20224;-78
2023/06/24 05:42:36;;;;;;;15.27;9.55;;;25.50;99.90;;;;;;5049945;28;20289;-78
2023/06/24 05:45:06;;;;;;;12.63;9.05;;;26.20;99.90;;;;;;5041989;28;20655;-78
2023/06/24 05:47:37;;;;;;;10.23;7.82;;;26.90;99.90;;;;;;5057474;28;20694;-78
2023/06/24 05:50:07;;;;;;;12.25;9.35;;;;;;;;;;5058496;28;20544;-77
2023/06/24 05:52:34;;;;;;;11.38;8.38;;;28.40;99.90;;;;;;5049088;28;20259;-77
2023/06/24 05:55:23;;;;;;;14.43;9.60;;;29.10;99.90;;;;;;5045246;28;20261;-78
2023/06/24 05:57:54;;;;;;;14.07;8.93;;;29.80;99.90;;;;;;5049551;28;20315;-78
2023/06/24 06:00:25;;;;;;;11.88;9.70;;;;;;;;;;5050578;28;20215;-78
2023/06/24 06:02:54;;;;;;;12.35;8.95;;;30.80;99.90;;;;;;5049234;28;20664;-79
2023/06/24 06:05:28;;;;;;;15.48;10.20;;;31.20;99.90;;;;;;5068687;28;20216;-78
2023/06/24 06:07:55;;;;;;;15.15;10.07;;;31.50;99.90;;;;;;5043320;28;20583;-77
2023/06/24 06:10:22;;;;;;;14.15;9.90;;;31.70;99.90;;;;;;5053506;28;20216;-78
2023/06/24 06:12:53;;;;;;;12.63;9.27;;;32.00;99.90;;;;;;5053433;28;20236;-77
2023/06/24 06:15:20;;;;;;;10.85;7.40;;;32.50;99.90;;;;;;5052759;28;20301;-78
2023/06/24 06:17:47;;;;;;;9.23;7.30;;;32.30;99.90;;;;;;5061298;28;20214;-80
2023/06/24 06:20:14;;;;;;;9.65;6.82;;;32.40;99.90;;;;;;5053216;28;20200;-78
2023/06/24 06:22:44;;;;;;;13.90;7.30;;;32.40;99.90;;;;;;5053545;28;20277;-80
2023/06/24 06:25:11;;;;;;;8.93;5.75;;;32.60;99.90;;;;;;5053571;28;20247;-78
2023/06/24 06:27:38;;;;;;;5.70;4.30;;;32.30;99.20;;;;;;5053604;28;20287;-76
2023/06/24 06:30:06;;;;;;;6.25;3.45;;;32.40;98.60;;;;;;5052758;28;20220;-79
2023/06/24 06:32:33;;;;;;;4.97;3.50;;;32.20;97.00;;;;;;5052873;28;20587;-78
2023/06/24 06:35:00;;;;;;;5.88;4.32;;;32.50;96.90;;;;;;5052878;28;20212;-77
2023/06/24 06:37:27;;;;;;;3.50;2.72;;;32.90;95.60;;;;;;5052248;28;20635;-80
2023/06/24 06:40:08;;;;;;;3.67;3.08;;;33.00;94.00;;;;;;5053857;28;20215;-78
2023/06/24 06:42:42;;;;;;;4.72;2.70;;;32.90;93.00;;;;;;5053640;28;20204;-81
2023/06/24 06:45:10;;;;;;;4.00;3.00;;;33.00;92.40;;;;;;5053907;28;20567;-77
2023/06/24 06:47:37;;;;;;;4.32;2.70;;;33.20;92.40;;;;;;5052526;28;20631;-79
2023/06/24 06:50:05;;;;;;;2.80;2.50;;;33.60;91.70;;;;;;5052997;28;20219;-82
2023/06/24 06:52:32;;;;;;;2.78;2.20;;;34.00;90.90;;;;;;5052601;28;20259;-77
2023/06/24 06:55:01;;;;;;;4.40;2.67;;;34.30;90.50;;;;;;5052839;28;20227;-79
2023/06/24 06:57:28;;;;;;;2.78;2.45;;;34.50;89.30;;;;;;5052360;28;20274;-78
2023/06/24 06:59:58;;;;;;;2.83;2.53;;;34.30;87.90;;;;;;5052374;28;20212;-79
2023/06/24 07:02:25;;;;;;;4.53;3.38;;;34.10;86.40;;;;;;5052163;28;20688;-79
2023/06/24 07:04:53;;;;;;;4.90;2.45;;;33.30;86.50;;;;;;5068949;28;20211;-79
2023/06/24 07:07:36;;;;;;;3.25;2.42;;;32.80;87.20;;;;;;5054639;28;20681;-78
2023/06/24 07:10:32;;;;;;;;;;;;;;;;;;;;;
2023/06/24 07:13:25;;;;;;;;;;;;;;;;;;;;;
2023/06/24 07:16:19;;;;;;;3.33;2.53;;;32.30;88.50;;;;;;5059464;28;20212;-78
2023/06/24 07:18:46;;;;;;;3.08;2.58;;;32.40;87.20;;;;;;5056044;28;20230;-81
2023/06/24 07:21:13;;;;;;;4.07;2.83;;;32.90;87.20;;;;;;5052089;28;20298;-79
2023/06/24 07:23:41;;;;;;;2.58;2.38;;;33.20;86.80;;;;;;5051341;28;20227;-78
2023/06/24 07:26:09;;;;;;;3.00;2.25;;;33.50;85.30;;;;;;5052695;28;20203;-78
2023/06/24 07:28:37;;;;;;;2.85;2.45;;;33.60;85.00;;;;;;5051784;28;20405;-77
2023/06/24 07:31:06;;;;;;;2.90;2.58;;;33.90;84.70;;;;;;5052076;28;20290;-79
2023/06/24 07:33:34;;;;;;;2.63;2.30;;;34.20;83.00;;;;;;5051368;28;20239;-79
2023/06/24 07:36:01;;;;;;;3.75;2.55;;;34.00;81.50;;;;;;5069806;28;20204;-78
2023/06/24 07:38:29;;;;;;;2.85;2.45;;;34.00;81.80;;;;;;5061308;28;20224;-78
2023/06/24 07:40:56;;;;;;;2.63;2.42;;;33.90;80.90;;;;;;5050742;28;20212;-79
2023/06/24 07:43:23;;;;;;;2.33;1.83;;;33.80;80.30;;;;;;5051205;28;20240;-79
2023/06/24 07:45:50;;;;;;;3.05;2.20;;;33.70;79.50;;;;;;5051663;28;20216;-78
2023/06/24 07:48:17;;;;;;;2.38;2.17;;;33.40;77.30;;;;;;5051320;28;20215;-77
2023/06/24 07:50:44;;;;;;;2.05;1.85;;;33.40;76.20;;;;;;5051158;28;20200;-78
2023/06/24 07:53:11;;;;;;;2.72;2.20;;;33.00;75.00;;;;;;5051267;28;20238;-77
2023/06/24 07:55:38;;;;;;;2.40;1.90;;;32.40;75.00;;;;;;5051219;28;20294;-79
2023/06/24 07:58:05;;;;;;;2.10;1.80;;;31.80;74.60;;;;;;5051433;28;20208;-78
2023/06/24 08:00:33;;;;;;;2.30;1.90;;;31.50;75.80;;;;;;5051667;28;20205;-78
2023/06/24 08:03:02;;;;;;;4.68;1.73;;;31.50;75.60;;;;;;5051463;28;20204;-77
2023/06/24 08:05:32;;;;;;;3.38;2.20;;;31.70;75.00;;;;;;5067603;28;20269;-79
2023/06/24 08:08:00;;;;;;;2.65;1.80;;;31.80;73.50;;;;;;5031161;28;20259;-80
2023/06/24 08:10:27;;;;;;;2.40;2.10;;;31.70;74.90;;;;;;5031207;28;20213;-77
2023/06/24 08:12:54;;;;;;;2.38;1.73;;;32.00;75.00;;;;;;5030826;28;20232;-76
2023/06/24 08:15:21;;;;;;;2.60;2.03;;;32.40;74.60;;;;;;5030565;28;20750;-77
2023/06/24 08:17:55;;;;;;;2.22;1.80;;;32.60;74.90;;;;;;5048540;28;20213;-79
2023/06/24 08:20:22;;;;;;;2.85;1.98;;;33.10;74.80;;;;;;5030986;28;20262;-78
2023/06/24 08:22:50;;;;;;;2.90;1.77;;;33.30;74.10;;;;;;5030346;28;20234;-77
2023/06/24 08:25:17;;;;;;;3.58;2.60;;;33.50;72.70;;;;;;5030567;28;20665;-78
2023/06/24 08:27:46;;;;;;;2.47;1.90;;;33.50;72.20;;;;;;5029369;28;20204;-78
2023/06/24 08:30:16;;;;;;;2.58;2.10;;;33.20;72.90;;;;;;5030767;28;20205;-77
2023/06/24 08:32:46;;;;;;;3.78;2.28;;;33.30;72.00;;;;;;5030626;28;20539;-78
2023/06/24 08:35:30;;;;;;;2.20;1.70;;;33.00;72.90;;;;;;5031014;28;20220;-78
2023/06/24 08:37:57;;;;;;;2.33;1.98;;;32.90;71.60;;;;;;5021554;28;20291;-78
2023/06/24 08:40:24;;;;;;;3.35;2.00;;;32.60;72.30;;;;;;5047078;28;20203;-79
2023/06/24 08:42:54;;;;;;;2.72;2.00;;;32.50;73.40;;;;;;5040066;28;20216;-79
2023/06/24 08:45:21;;;;;;;2.65;2.00;;;32.80;74.40;;;;;;5030459;28;20262;-77
2023/06/24 08:47:50;;;;;;;2.42;1.63;;;33.10;73.10;;;;;;5030544;28;20209;-78
2023/06/24 08:50:24;;;;;;;2.67;1.98;;;33.20;72.50;;;;;;5030850;28;20605;-78
2023/06/24 08:52:55;;;;;;;3.08;1.77;;;33.40;72.40;;;;;;5030218;28;20220;-77
2023/06/24 08:55:27;;;;;;;3.97;2.15;;;33.30;72.20;;;;;;5030641;28;20415;-80
2023/06/24 08:57:55;;;;;;;3.78;2.30;;;33.20;71.70;;;;;;5031703;28;20480;-77
2023/06/24 09:00:22;;;;;;;3.45;2.33;;;32.80;71.50;;;;;;5032420;28;20219;-79
2023/06/24 09:02:51;;;;;;;2.95;2.30;;;32.90;72.80;;;;;;5030713;28;20197;-78
2023/06/24 09:05:18;;;;;;;3.58;2.40;;;33.10;73.20;;;;;;5031165;28;20402;-80
2023/06/24 09:07:45;;;;;;;3.25;2.55;;;33.30;73.50;;;;;;5024569;28;20700;-78
2023/06/24 09:10:32;;;;;;;2.63;2.42;;;32.70;72.30;;;;;;5030259;28;20219;-79
2023/06/24 09:13:05;;;;;;;3.97;2.70;;;32.20;71.90;;;;;;5030064;28;20228;-78
2023/06/24 09:15:36;;;;;;;3.00;2.40;;;32.00;74.50;;;;;;5048579;28;20208;-78
2023/06/24 09:18:04;;;;;;;3.70;2.30;;;32.20;74.70;;;;;;5029763;28;20452;-78
2023/06/24 09:20:33;;;;;;;2.97;2.38;;;32.70;74.40;;;;;;5029714;28;20202;-80
2023/06/24 09:23:06;;;;;;;2.83;2.30;;;33.10;73.10;;;;;;5029942;28;20221;-81
2023/06/24 09:25:36;;;;;;;3.45;2.60;;;33.50;71.90;;;;;;5029600;28;20244;-77
2023/06/24 09:28:07;;;;;;;3.25;2.72;;;33.70;71.90;;;;;;5022161;28;20209;-77
2023/06/24 09:30:35;;;;;;;3.80;2.60;;;33.90;71.80;;;;;;5030248;28;20566;-77
2023/06/24 09:33:04;;;;;;;3.17;2.63;;;34.20;72.30;;;;;;5014128;28;20704;-79
2023/06/24 09:35:37;;;;;;;2.72;2.35;;;34.40;72.00;;;;;;5032299;28;20208;-80
2023/06/24 09:38:07;;;;;;;4.43;2.90;;;34.10;72.40;;;;;;5047720;28;20244;-79
2023/06/24 09:40:37;;;;;;;3.20;2.65;;;34.10;73.20;;;;;;5040487;28;20213;-77
2023/06/24 09:43:04;;;;;;;3.55;2.78;;;33.60;73.10;;;;;;5029285;28;20228;-78
2023/06/24 09:45:33;;;;;;;4.75;3.22;;;33.50;72.70;;;;;;5033536;28;20571;-77
2023/06/24 09:48:03;;;;;;;3.67;2.67;;;33.50;73.50;;;;;;5033858;28;20303;-78
2023/06/24 09:50:33;;;;;;;4.28;3.00;;;33.10;74.20;;;;;;5033834;28;20204;-80
2023/06/24 09:53:04;;;;;;;4.70;3.20;;;33.00;74.40;;;;;;5026063;28;20278;-78
2023/06/24 09:55:31;;;;;;;4.88;3.25;;;33.00;74.10;;;;;;5033715;28;20221;-77
2023/06/24 09:58:04;;;;;;;4.05;3.25;;;33.00;75.00;;;;;;5034853;28;20300;-78
2023/06/24 10:00:31;;;;;;;4.20;3.03;;;33.10;73.50;;;;;;5033552;28;20299;-77
2023/06/24 10:02:58;;;;;;;4.72;3.10;;;33.20;74.10;;;;;;5033352;28;20636;-79
2023/06/24 10:05:27;;;;;;;5.00;2.90;;;33.20;74.50;;;;;;5035299;28;20209;-78
2023/06/24 10:07:54;;;;;;;4.60;3.15;;;33.10;73.90;;;;;;5041235;28;20239;-79
2023/06/24 10:10:21;;;;;;;4.85;3.10;;;33.00;75.70;;;;;;5053815;28;20648;-78
2023/06/24 10:12:57;;;;;;;4.15;3.03;;;32.60;75.30;;;;;;5053923;28;20246;-78
2023/06/24 10:15:41;;;;;;;3.47;2.83;;;32.40;76.30;;;;;;5055659;28;20219;-80
2023/06/24 10:18:30;;;;;;;3.35;2.95;;;32.30;75.70;;;;;;5053448;28;20208;-78
2023/06/24 10:21:05;;;;;;;4.82;3.20;;;32.20;78.50;;;;;;5052733;28;20655;-79
2023/06/24 10:23:49;;;;;;;4.35;2.72;;;32.30;76.80;;;;;;5054165;28;20251;-81
2023/06/24 10:26:30;;;;;;;3.38;2.60;;;32.40;76.10;;;;;;5047973;28;20208;-79
2023/06/24 10:29:06;;;;;;;4.25;3.25;;;32.50;76.60;;;;;;5053890;28;20493;-81
2023/06/24 10:31:39;;;;;;;4.15;3.15;;;32.20;75.30;;;;;;5053726;28;20284;-80
2023/06/24 10:34:37;;;;;;;5.63;3.05;;;32.00;76.20;;;;;;5045227;28;20244;-80
2023/06/24 10:37:18;;;;;;;4.38;2.65;;;31.80;75.70;;;;;;5053113;28;20239;-78
2023/06/24 10:40:07;;;;;;;4.30;2.60;;;31.50;76.50;;;;;;5054464;28;20220;-77
2023/06/24 10:42:46;;;;;;;5.35;3.00;;;31.50;78.00;;;;;;5053500;28;20227;-80
2023/06/24 10:45:18;;;;;;;3.83;2.65;;;31.40;77.10;;;;;;5054431;28;20208;-77
2023/06/24 10:47:52;;;;;;;3.58;3.08;;;31.20;76.80;;;;;;5054181;28;20282;-78
2023/06/24 10:50:21;;;;;;;4.28;3.00;;;31.30;77.20;;;;;;5053439;28;20200;-77
2023/06/24 10:52:53;;;;;;;4.40;3.05;;;31.50;77.40;;;;;;5052983;28;20216;-77
2023/06/24 10:55:27;;;;;;;3.63;2.90;;;31.70;77.00;;;;;;5053037;28;20282;-77
2023/06/24 10:57:54;;;;;;;3.30;2.70;;;31.80;76.90;;;;;;5052865;28;20291;-79
2023/06/24 11:00:22;;;;;;;5.78;3.25;;;32.00;76.00;;;;;;5053235;28;20666;-77
2023/06/24 11:02:49;;;;;;;5.05;3.05;;;32.10;75.80;;;;;;5052911;28;20283;-77
2023/06/24 11:05:16;;;;;;;4.70;3.58;;;32.20;75.00;;;;;;5070279;28;20288;-78
2023/06/24 11:07:43;;;;;;;4.68;3.35;;;32.00;74.60;;;;;;5061906;28;20381;-78
2023/06/24 11:10:15;;;;;;;4.28;3.35;;;31.50;74.70;;;;;;5061607;28;20555;-81
2023/06/24 11:12:43;;;;;;;4.55;3.30;;;31.50;76.40;;;;;;5052288;28;20222;-79
2023/06/24 11:15:11;;;;;;;5.15;3.13;;;31.60;76.60;;;;;;5051745;28;20639;-78
2023/06/24 11:17:39;;;;;;;4.60;3.10;;;31.80;76.60;;;;;;5052271;28;20325;-78
2023/06/24 11:20:17;;;;;;;4.43;3.20;;;32.10;77.10;;;;;;5052337;28;20607;-77
2023/06/24 11:22:46;;;;;;;4.20;3.20;;;32.30;76.50;;;;;;5052432;28;20710;-82
2023/06/24 11:25:18;;;;;;;4.22;3.38;;;32.20;75.80;;;;;;5052234;28;20265;-79
2023/06/24 11:27:45;;;;;;;7.00;3.65;;;32.20;76.50;;;;;;5052264;28;20212;-79
2023/06/24 11:30:13;;;;;;;5.13;3.28;;;32.00;76.10;;;;;;5051757;28;20591;-78
2023/06/24 11:32:41;;;;;;;3.22;2.40;;;31.80;75.80;;;;;;5051656;28;20460;-78
2023/06/24 11:35:11;;;;;;;3.80;3.15;;;32.00;75.70;;;;;;5052032;28;20322;-79
2023/06/24 11:37:42;;;;;;;3.80;3.13;;;32.10;76.10;;;;;;5051890;28;20200;-78
2023/06/24 11:40:10;;;;;;;3.30;2.88;;;32.30;76.50;;;;;;5044907;28;20221;-77
2023/06/24 11:42:44;;;;;;;3.10;2.78;;;32.40;75.80;;;;;;5051931;28;20830;-78
2023/06/24 11:45:19;;;;;;;5.40;2.80;;;32.50;74.40;;;;;;5051620;28;20212;-77
2023/06/24 11:47:46;;;;;;;3.40;2.88;;;32.60;73.40;;;;;;5051711;28;20204;-78
2023/06/24 11:50:13;;;;;;;3.53;2.42;;;32.60;73.30;;;;;;5051842;28;20216;-77
2023/06/24 11:52:52;;;;;;;3.55;3.20;;;32.60;73.80;;;;;;5051181;28;20204;-77
2023/06/24 11:55:20;;;;;;;5.07;2.60;;;32.60;74.50;;;;;;5069271;28;20236;-78
2023/06/24 11:57:54;;;;;;;4.88;2.90;;;32.40;75.00;;;;;;5051411;28;20236;-76
2023/06/24 12:00:26;;;;;;;4.28;2.95;;;32.40;76.60;;;;;;5051543;28;20208;-79
2023/06/24 12:02:55;;;;;;;4.00;3.00;;;32.40;75.90;;;;;;5049473;28;20216;-78
2023/06/24 12:05:26;;;;;;;3.90;3.00;;;32.30;75.50;;;;;;5051386;28;20675;-80
2023/06/24 12:07:58;;;;;;;3.60;3.30;;;32.00;75.40;;;;;;5051389;28;20259;-79
2023/06/24 12:10:25;;;;;;;3.40;2.78;;;31.90;75.70;;;;;;5052622;28;20217;-78
2023/06/24 12:12:53;;;;;;;5.22;3.00;;;31.60;75.90;;;;;;5052617;28;20779;-78
2023/06/24 12:15:20;;;;;;;4.18;2.72;;;31.70;76.40;;;;;;5051996;28;20339;-78
2023/06/24 12:17:46;;;;;;;3.63;2.45;;;31.80;76.30;;;;;;5051185;28;20640;-78
2023/06/24 12:20:19;;;;;;;3.90;3.17;;;32.00;76.90;;;;;;5061529;28;20641;-78
2023/06/24 12:22:48;;;;;;;2.83;2.35;;;32.30;76.00;;;;;;5050667;28;20212;-79
2023/06/24 12:25:16;;;;;;;3.80;2.67;;;32.80;75.50;;;;;;5068222;28;20574;-79
2023/06/24 12:27:44;;;;;;;7.47;2.80;;;33.20;75.70;;;;;;5051253;28;20306;-78
2023/06/24 12:30:12;;;;;;;3.17;2.67;;;33.40;75.00;;;;;;5069263;28;20240;-79
2023/06/24 12:32:39;;;;;;;5.35;3.15;;;33.70;74.50;;;;;;5050238;28;20284;-79
2023/06/24 12:35:10;;;;;;;4.43;3.00;;;33.70;74.60;;;;;;5050507;28;20608;-78
2023/06/24 12:37:37;;;;;;;3.90;3.10;;;33.90;73.30;;;;;;5050651;28;20259;-76
2023/06/24 12:40:05;;;;;;;3.40;2.78;;;34.00;73.70;;;;;;5042319;28;20224;-79
2023/06/24 12:42:32;;;;;;;4.30;3.30;;;33.70;73.70;;;;;;5050525;28;20201;-77
2023/06/24 12:45:00;;;;;;;4.68;3.17;;;33.80;73.60;;;;;;5050509;28;20653;-79
2023/06/24 12:47:27;;;;;;;5.00;3.35;;;33.80;73.80;;;;;;5049986;28;20215;-78
2023/06/24 12:49:54;;;;;;;4.43;3.15;;;33.70;74.50;;;;;;5067676;28;20239;-77
2023/06/24 12:52:23;;;;;;;3.83;2.88;;;33.70;74.70;;;;;;5068289;28;20288;-78
2023/06/24 12:54:50;;;;;;;4.50;3.53;;;33.60;74.80;;;;;;5049872;28;20602;-78
2023/06/24 12:57:17;;;;;;;3.30;2.95;;;33.70;74.90;;;;;;5050247;28;20192;-79
2023/06/24 12:59:44;;;;;;;4.57;3.30;;;33.80;75.10;;;;;;5068707;28;20208;-78
2023/06/24 13:02:11;;;;;;;5.00;3.38;;;33.80;75.10;;;;;;5048471;28;20213;-78
2023/06/24 13:04:38;;;;;;;4.47;3.45;;;33.40;74.60;;;;;;5049825;28;20208;-79
2023/06/24 13:07:07;;;;;;;4.07;3.03;;;33.30;74.70;;;;;;5050119;28;20579;-79
2023/06/24 13:09:34;;;;;;;4.80;3.17;;;33.30;75.00;;;;;;5067901;28;20224;-77
2023/06/24 13:12:01;;;;;;;4.00;3.08;;;33.10;75.50;;;;;;5050859;28;20672;-79
2023/06/24 13:14:28;;;;;;;6.40;3.42;;;33.00;76.50;;;;;;5057168;28;20251;-79
2023/06/24 13:16:55;;;;;;;6.05;3.60;;;33.00;76.80;;;;;;5050873;28;20636;-80